LIBD/BRI METAR and TAF weather

Enter ICAO airport designator
Station Type Date Time Source
LIBD METAR 2019/08/25 20:50 UTC NOAA

LIBD 252050Z 25004KT 9999 FEW015 25/22 Q1016


Station Type Date Time Source
LIBD Decoded METAR 2019/08/25 20:50 UTC NOAA

Station name not available
Aug 25, 2019 - 04:50 PM EDT / 2019.08.25 2050 UTC
Wind: from the WSW (250 degrees) at 5 MPH (4 KT):0
Visibility: greater than 7 mile(s):0
Sky conditions: mostly clear
Temperature: 77 F (25 C)
Dew Point: 71 F (22 C)
Relative Humidity: 83%
Pressure (altimeter): 30.00 in. Hg (1016 hPa)
ob: LIBD 252050Z 25004KT 9999 FEW015 25/22 Q1016
cycle: 21

Station Type Date Time Source
LIBD TAF 2019/08/25 18:21 UTC NOAA

TAF TAF LIBD 251700Z 2518/2618 VRB05KT 9999 SCT030
BECMG 2608/2610 02012KT

Example: see airport list